createdAt,value
2019-01-30T00:00:54.925Z,100264.30
2019-01-30T00:03:27.184Z,100266.30
2019-01-30T00:05:58.386Z,100274.20
2019-01-30T00:08:29.576Z,100285.22
2019-01-30T00:11:00.887Z,100287.14
2019-01-30T00:13:33.174Z,100286.26
2019-01-30T00:16:04.644Z,100295.32
2019-01-30T00:18:35.889Z,100295.63
2019-01-30T00:21:07.039Z,100292.29
2019-01-30T00:23:38.249Z,100295.52
2019-01-30T00:26:09.434Z,100297.08
2019-01-30T00:28:40.635Z,100296.27
2019-01-30T00:31:12.744Z,100296.41
2019-01-30T00:33:44.402Z,100296.41
2019-01-30T00:36:15.728Z,100299.66
2019-01-30T00:38:46.937Z,100297.34
2019-01-30T00:41:18.149Z,100308.41
2019-01-30T00:43:49.368Z,100312.05
2019-01-30T00:46:20.702Z,100321.05
2019-01-30T00:48:51.894Z,100313.84
2019-01-30T00:51:23.012Z,100321.44
2019-01-30T00:53:54.186Z,100324.87
2019-01-30T00:56:25.421Z,100317.01
2019-01-30T00:58:56.680Z,100322.26
2019-01-30T01:01:27.862Z,100320.72
2019-01-30T01:03:59.111Z,100317.80
2019-01-30T01:06:30.450Z,100328.59
2019-01-30T01:09:01.719Z,100333.93
2019-01-30T01:11:34.547Z,100338.10
2019-01-30T01:14:06.130Z,100340.58
2019-01-30T01:16:37.450Z,100341.09
2019-01-30T01:19:08.783Z,100338.09
2019-01-30T01:21:39.975Z,100338.09
2019-01-30T01:24:11.157Z,100347.27
2019-01-30T01:26:42.918Z,100344.63
2019-01-30T01:29:14.112Z,100339.63
2019-01-30T01:31:45.661Z,100347.98
2019-01-30T01:34:16.851Z,100349.69
2019-01-30T01:36:48.051Z,100343.77
2019-01-30T01:39:19.247Z,100351.06
2019-01-30T01:41:50.494Z,100362.09
2019-01-30T01:44:21.766Z,100362.80
2019-01-30T01:46:52.897Z,100363.48
2019-01-30T01:49:24.122Z,100367.72
2019-01-30T01:51:55.763Z,100371.52
2019-01-30T01:54:26.984Z,100372.70
2019-01-30T01:56:58.372Z,100369.46
2019-01-30T01:59:29.576Z,100376.02
2019-01-30T02:02:00.772Z,100381.12
2019-01-30T02:04:32.737Z,100381.68
2019-01-30T02:07:04.010Z,100377.63
2019-01-30T02:09:35.463Z,100393.89
2019-01-30T02:12:06.867Z,100383.37
2019-01-30T02:14:38.263Z,100388.88
2019-01-30T02:17:09.477Z,100382.69
2019-01-30T02:19:40.722Z,100388.67
2019-01-30T02:22:11.932Z,100392.48
2019-01-30T02:24:43.883Z,100394.55
2019-01-30T02:27:15.748Z,100395.89
2019-01-30T02:29:46.932Z,100405.27
2019-01-30T02:32:18.124Z,100393.66
2019-01-30T02:34:49.323Z,100404.34
2019-01-30T02:37:20.670Z,100409.04
2019-01-30T02:39:52.040Z,100419.41
2019-01-30T02:42:23.236Z,100416.11
2019-01-30T02:44:54.429Z,100417.25
2019-01-30T02:47:25.731Z,100410.15
2019-01-30T02:49:56.925Z,100418.44
2019-01-30T02:52:28.115Z,100420.94
2019-01-30T02:54:59.322Z,100418.21
2019-01-30T02:57:30.562Z,100426.50
2019-01-30T03:00:02.916Z,100429.21
2019-01-30T03:02:34.205Z,100435.09
2019-01-30T03:05:07.613Z,100431.10
2019-01-30T03:07:40.087Z,100442.89
2019-01-30T03:10:13.995Z,100448.98
2019-01-30T03:12:45.338Z,100440.77
2019-01-30T03:15:17.484Z,100453.30
2019-01-30T03:17:48.740Z,100456.58
2019-01-30T03:20:21.693Z,100459.87
2019-01-30T03:22:52.901Z,100458.63
2019-01-30T03:25:24.746Z,100459.88
2019-01-30T03:27:55.942Z,100465.50
2019-01-30T03:30:29.027Z,100462.77
2019-01-30T03:33:00.210Z,100469.30
2019-01-30T03:35:31.416Z,100471.62
2019-01-30T03:38:02.590Z,100478.16
2019-01-30T03:40:34.419Z,100478.16
2019-01-30T03:43:05.976Z,100470.59
2019-01-30T03:45:37.161Z,100478.88
2019-01-30T03:48:08.348Z,100469.31
2019-01-30T03:50:39.458Z,100479.70
2019-01-30T03:53:11.251Z,100491.52
2019-01-30T03:55:42.901Z,100482.52
2019-01-30T03:58:14.146Z,100478.80
2019-01-30T04:00:45.829Z,100476.05
2019-01-30T04:03:17.423Z,100485.05
2019-01-30T04:05:48.732Z,100478.18
2019-01-30T04:08:19.910Z,100480.39
2019-01-30T04:10:51.079Z,100477.94
2019-01-30T04:13:23.992Z,100483.06
2019-01-30T04:15:55.217Z,100487.76
2019-01-30T04:18:26.778Z,100498.80
2019-01-30T04:20:58.130Z,100498.09
2019-01-30T04:23:29.258Z,100496.34
2019-01-30T04:26:00.496Z,100495.28
2019-01-30T04:28:31.688Z,100498.21
2019-01-30T04:31:02.893Z,100497.37
2019-01-30T04:33:34.080Z,100502.27
2019-01-30T04:36:06.028Z,100499.45
2019-01-30T04:38:37.209Z,100494.20
2019-01-30T04:41:08.444Z,100435.08
2019-01-30T04:43:39.682Z,100503.61
2019-01-30T04:46:10.878Z,100502.91
2019-01-30T04:48:42.752Z,100510.27
2019-01-30T04:51:13.971Z,100515.75
2019-01-30T04:53:45.225Z,100514.73
2019-01-30T04:56:17.697Z,100510.05
2019-01-30T04:58:48.909Z,100505.78
2019-01-30T05:01:20.118Z,100513.62
2019-01-30T05:03:51.301Z,100505.34
2019-01-30T05:06:22.844Z,100501.81
2019-01-30T05:08:55.941Z,100505.47
2019-01-30T05:11:26.873Z,100512.67
2019-01-30T05:14:01.207Z,100511.34
2019-01-30T05:16:31.426Z,100516.68
2019-01-30T05:19:04.281Z,100517.32
2019-01-30T05:21:35.472Z,100522.99
2019-01-30T05:24:07.256Z,100516.67
2019-01-30T05:26:38.452Z,100522.81
2019-01-30T05:29:09.934Z,100525.29
2019-01-30T05:31:41.180Z,100525.92
2019-01-30T05:34:12.769Z,100523.97
2019-01-30T05:36:43.977Z,100523.44
2019-01-30T05:39:15.725Z,100526.18
2019-01-30T05:41:46.922Z,100525.22
2019-01-30T05:44:18.106Z,100530.00
2019-01-30T05:46:49.301Z,100523.66
2019-01-30T05:49:20.537Z,100527.95
2019-01-30T05:51:51.785Z,100537.66
2019-01-30T05:54:22.994Z,100541.53
2019-01-30T05:56:54.167Z,100541.34
2019-01-30T05:59:25.376Z,100548.77
2019-01-30T06:01:56.486Z,100558.16
2019-01-30T06:04:35.953Z,100560.25
2019-01-30T06:07:08.849Z,100549.88
2019-01-30T06:09:40.047Z,100563.66
2019-01-30T06:12:11.219Z,100574.36
2019-01-30T06:14:42.956Z,100575.07
2019-01-30T06:17:14.243Z,100581.52
2019-01-30T06:19:45.497Z,100438.94
2019-01-30T06:22:16.686Z,100587.27
2019-01-30T06:24:47.876Z,100596.22
2019-01-30T06:27:19.076Z,100601.50
2019-01-30T06:29:50.271Z,100602.70
2019-01-30T06:32:22.134Z,100606.58
2019-01-30T06:34:53.337Z,100597.94
2019-01-30T06:37:24.516Z,100604.83
2019-01-30T06:39:56.081Z,100612.97
2019-01-30T06:42:27.292Z,100602.63
2019-01-30T06:44:58.481Z,100606.59
2019-01-30T06:47:29.743Z,100612.11
2019-01-30T06:50:00.930Z,100605.98
2019-01-30T06:52:32.771Z,100618.48
2019-01-30T06:55:04.530Z,100616.04
2019-01-30T06:57:35.784Z,100618.72
2019-01-30T07:00:12.374Z,100619.72
2019-01-30T07:02:43.973Z,100617.69
2019-01-30T07:05:15.922Z,100623.73
2019-01-30T07:07:47.122Z,100620.97
2019-01-30T07:10:20.550Z,100622.08
2019-01-30T07:12:51.949Z,100630.67
2019-01-30T07:15:23.877Z,100634.42
2019-01-30T07:17:55.077Z,100640.95
2019-01-30T07:20:26.333Z,100633.94
2019-01-30T07:22:58.209Z,100629.36
2019-01-30T07:25:29.382Z,100635.16
2019-01-30T07:28:00.607Z,100641.44
2019-01-30T07:30:34.280Z,100646.15
2019-01-30T07:33:06.336Z,100657.27
2019-01-30T07:35:37.526Z,100652.30
2019-01-30T07:38:08.821Z,100653.99
2019-01-30T07:40:39.993Z,100651.81
2019-01-30T07:43:11.265Z,100660.41
2019-01-30T07:45:42.642Z,100671.05
2019-01-30T07:48:15.085Z,100668.98
2019-01-30T07:50:46.302Z,100682.53
2019-01-30T07:53:17.507Z,100684.23
2019-01-30T07:55:48.846Z,100685.32
2019-01-30T07:58:20.065Z,100690.27
2019-01-30T08:00:51.282Z,100696.57
2019-01-30T08:03:22.887Z,100692.56
2019-01-30T08:05:54.096Z,100691.85
2019-01-30T08:08:25.859Z,100698.49
2019-01-30T08:10:57.092Z,100698.50
2019-01-30T08:13:28.311Z,100703.34
2019-01-30T08:15:59.520Z,100704.18
2019-01-30T08:18:30.797Z,100705.53
2019-01-30T08:21:02.650Z,100712.79
2019-01-30T08:23:34.400Z,100708.66
2019-01-30T08:26:06.193Z,100708.80
2019-01-30T08:28:37.447Z,100712.98
2019-01-30T08:31:09.203Z,100721.20
2019-01-30T08:33:40.454Z,100715.39
2019-01-30T08:36:12.741Z,100717.30
2019-01-30T08:38:43.957Z,100721.20
2019-01-30T08:41:15.163Z,100729.36
2019-01-30T08:43:46.951Z,100731.42
2019-01-30T08:46:18.181Z,100739.59
2019-01-30T08:48:49.366Z,100733.47
2019-01-30T08:51:20.672Z,100737.05
2019-01-30T08:53:51.866Z,100735.90
2019-01-30T08:56:23.079Z,100729.75
2019-01-30T08:58:54.281Z,100735.80
2019-01-30T09:01:25.600Z,100740.38
2019-01-30T09:03:56.786Z,100755.34
2019-01-30T09:06:28.219Z,100754.73
2019-01-30T09:08:59.376Z,100762.28
2019-01-30T09:11:30.666Z,100772.31
2019-01-30T09:14:01.841Z,100772.22
2019-01-30T09:16:33.117Z,100779.55
2019-01-30T09:19:04.309Z,100792.55
2019-01-30T09:21:35.596Z,100781.55
2019-01-30T09:24:06.865Z,100783.31
2019-01-30T09:26:39.145Z,100804.41
2019-01-30T09:29:10.330Z,100792.23
2019-01-30T09:31:41.571Z,100804.21
2019-01-30T09:34:12.767Z,100805.73
2019-01-30T09:36:43.991Z,100805.55
2019-01-30T09:39:15.783Z,100715.55
2019-01-30T09:41:47.080Z,100715.55
2019-01-30T09:44:18.257Z,100813.89
2019-01-30T09:46:49.468Z,100805.75
2019-01-30T09:49:20.783Z,100816.95
2019-01-30T09:51:52.743Z,100811.33
2019-01-30T09:54:24.020Z,100810.00
2019-01-30T09:56:55.109Z,100806.21
2019-01-30T09:59:26.275Z,100806.00
2019-01-30T10:01:58.378Z,100807.70
2019-01-30T10:04:29.750Z,100816.78
2019-01-30T10:07:00.966Z,100824.13
2019-01-30T10:09:33.172Z,100822.66
2019-01-30T10:12:04.508Z,100823.77
2019-01-30T10:14:35.990Z,100818.23
2019-01-30T10:17:07.241Z,100829.50
2019-01-30T10:19:41.372Z,100822.12
2019-01-30T10:22:11.846Z,100825.03
2019-01-30T10:24:43.144Z,100835.19
2019-01-30T10:27:14.339Z,100833.09
2019-01-30T10:29:45.534Z,100831.04
2019-01-30T10:32:16.786Z,100833.22
2019-01-30T10:34:48.102Z,100835.12
2019-01-30T10:37:19.422Z,100836.20
2019-01-30T10:39:50.742Z,100786.70
2019-01-30T10:42:22.743Z,100845.86
2019-01-30T10:44:54.406Z,100847.16
2019-01-30T10:47:25.689Z,100851.33
2019-01-30T10:49:56.873Z,100860.28
2019-01-30T10:52:28.198Z,100861.23
2019-01-30T10:54:59.419Z,100872.20
2019-01-30T10:57:30.797Z,100862.26
2019-01-30T11:00:02.875Z,100872.55
2019-01-30T11:02:34.137Z,100868.17
2019-01-30T11:05:06.567Z,100868.86
2019-01-30T11:07:37.713Z,100872.62
2019-01-30T11:10:08.962Z,100882.88
2019-01-30T11:12:40.288Z,100882.88
2019-01-30T11:15:13.434Z,100876.91
2019-01-30T11:17:45.114Z,100879.30
2019-01-30T11:20:17.787Z,100883.90
2019-01-30T11:22:49.278Z,100846.28
2019-01-30T11:25:29.276Z,100879.48
2019-01-30T11:28:00.451Z,100879.56
2019-01-30T11:30:32.152Z,100880.55
2019-01-30T11:33:03.913Z,100874.77
2019-01-30T11:35:35.759Z,100884.23
2019-01-30T11:38:09.027Z,100894.64
2019-01-30T11:40:40.320Z,100880.59
2019-01-30T11:43:11.708Z,100889.69
2019-01-30T11:45:44.429Z,100884.37
2019-01-30T11:48:15.629Z,100883.69
2019-01-30T11:50:46.850Z,100883.03
2019-01-30T11:53:17.987Z,100891.09
2019-01-30T11:55:49.185Z,100889.68
2019-01-30T11:58:20.463Z,100907.63
2019-01-30T12:00:55.814Z,100912.85
2019-01-30T12:03:27.036Z,100904.15
2019-01-30T12:05:58.314Z,100910.25
2019-01-30T12:08:29.567Z,100916.46
2019-01-30T12:11:00.787Z,100923.50
2019-01-30T12:13:32.949Z,100931.60
2019-01-30T12:16:04.228Z,100919.00
2019-01-30T12:18:35.564Z,100914.63
2019-01-30T12:21:06.893Z,100914.59
2019-01-30T12:23:38.067Z,100913.25
2019-01-30T12:26:09.316Z,100930.73
2019-01-30T12:28:40.477Z,100915.07
2019-01-30T12:31:11.952Z,100918.23
2019-01-30T12:33:43.138Z,100914.75
2019-01-30T12:36:14.464Z,100920.89
2019-01-30T12:38:45.752Z,100927.80
2019-01-30T12:41:16.988Z,100928.94
2019-01-30T12:43:48.195Z,100937.10
2019-01-30T12:46:20.109Z,100947.52
2019-01-30T12:48:51.319Z,100951.53
2019-01-30T12:51:22.666Z,100954.31
2019-01-30T12:53:54.497Z,100955.21
2019-01-30T12:56:26.075Z,100965.70
2019-01-30T12:58:57.378Z,100965.41
2019-01-30T13:01:30.916Z,100974.20
2019-01-30T13:04:01.702Z,100976.27
2019-01-30T13:06:33.092Z,100976.77
2019-01-30T13:09:09.038Z,101000.89
2019-01-30T13:11:40.367Z,100971.17
2019-01-30T13:14:12.299Z,100975.46
2019-01-30T13:16:43.475Z,100974.44
2019-01-30T13:19:15.216Z,100985.67
2019-01-30T13:21:46.441Z,100987.64
2019-01-30T13:24:17.734Z,100976.61
2019-01-30T13:26:48.948Z,100974.34
2019-01-30T13:29:20.131Z,100979.14
2019-01-30T13:31:51.473Z,100987.32
2019-01-30T13:34:23.123Z,100979.21
2019-01-30T13:36:54.623Z,100980.23
2019-01-30T13:39:25.999Z,100986.53
2019-01-30T13:41:57.237Z,100978.55
2019-01-30T13:44:28.372Z,100986.84
2019-01-30T13:46:59.842Z,100992.04
2019-01-30T13:49:31.093Z,100983.45
2019-01-30T13:52:02.710Z,100987.20
2019-01-30T13:54:34.098Z,100981.88
2019-01-30T13:57:05.302Z,100987.20
2019-01-30T13:59:39.043Z,100985.13
2019-01-30T14:02:10.249Z,100985.90
2019-01-30T14:04:41.467Z,100983.62
2019-01-30T14:07:12.874Z,100989.00
2019-01-30T14:09:44.053Z,100993.81
2019-01-30T14:12:15.340Z,100988.50
2019-01-30T14:14:46.833Z,100996.61
2019-01-30T14:17:18.029Z,101001.64
2019-01-30T14:20:22.440Z,101003.03
2019-01-30T14:32:14.903Z,101005.75
2019-01-30T14:39:34.253Z,101011.36
2019-01-30T14:42:13.342Z,101008.47
2019-01-30T14:44:44.969Z,101006.03
2019-01-30T14:47:17.260Z,101012.30
2019-01-30T14:49:49.877Z,101017.03
2019-01-30T14:52:21.466Z,101023.61
2019-01-30T14:54:54.438Z,101014.31
2019-01-30T14:57:25.880Z,101016.27
2019-01-30T14:59:57.119Z,101018.33
2019-01-30T15:02:30.150Z,101023.18
2019-01-30T15:05:01.414Z,101027.90
2019-01-30T15:07:32.732Z,101019.69
2019-01-30T15:10:04.310Z,101023.30
2019-01-30T15:12:35.456Z,101026.95
2019-01-30T15:15:20.040Z,101035.55
2019-01-30T15:17:51.256Z,101033.88
2019-01-30T15:20:27.779Z,101035.44
2019-01-30T15:22:59.405Z,101027.42
2019-01-30T15:25:31.294Z,100949.97
2019-01-30T15:28:03.437Z,101028.39
2019-01-30T15:30:52.874Z,101031.21
2019-01-30T15:33:24.075Z,101029.27
2019-01-30T15:35:55.207Z,101028.17
2019-01-30T15:38:27.550Z,101035.44
2019-01-30T15:40:58.898Z,101032.53
2019-01-30T15:43:30.147Z,101040.20
2019-01-30T15:46:01.336Z,101035.34
2019-01-30T15:48:32.965Z,101038.98
2019-01-30T15:51:05.699Z,101047.46
2019-01-30T15:53:36.928Z,101040.31
2019-01-30T15:56:10.235Z,101041.53
2019-01-30T15:58:42.425Z,101034.27
2019-01-30T16:01:21.720Z,101040.08
2019-01-30T16:03:53.026Z,101038.50
2019-01-30T16:06:24.232Z,101042.37
2019-01-30T16:08:55.428Z,101048.08
2019-01-30T16:11:26.646Z,101043.02
2019-01-30T16:14:00.168Z,101046.02
2019-01-30T16:16:31.316Z,101037.58
2019-01-30T16:19:02.847Z,101046.06
2019-01-30T16:21:34.122Z,101046.06
2019-01-30T16:24:05.892Z,101043.18
2019-01-30T16:26:37.101Z,101046.45
2019-01-30T16:29:08.304Z,101050.56
2019-01-30T16:31:41.666Z,101053.47
2019-01-30T16:34:12.882Z,101058.20
2019-01-30T16:36:44.098Z,101048.50
2019-01-30T16:39:15.708Z,101058.93
2019-01-30T16:41:46.937Z,101058.93
2019-01-30T16:44:19.168Z,101056.73
2019-01-30T16:46:50.362Z,101059.92
2019-01-30T16:49:21.763Z,101056.88
2019-01-30T16:51:53.009Z,101066.31
2019-01-30T16:54:24.262Z,101061.23
2019-01-30T16:56:56.698Z,101066.95
2019-01-30T16:59:27.915Z,101080.89
2019-01-30T17:01:59.138Z,101076.64
2019-01-30T17:04:30.418Z,101077.72
2019-01-30T17:07:01.724Z,101077.72
2019-01-30T17:09:32.992Z,101082.70
2019-01-30T17:12:04.298Z,101085.11
2019-01-30T17:14:39.883Z,101077.02
2019-01-30T17:17:11.082Z,101077.02
2019-01-30T17:19:42.888Z,101087.77
2019-01-30T17:22:14.098Z,101079.43
2019-01-30T17:24:45.441Z,101082.45
2019-01-30T17:27:16.620Z,101085.59
2019-01-30T17:29:48.294Z,101081.97
2019-01-30T17:32:19.514Z,101091.79
2019-01-30T17:34:52.029Z,101087.78
2019-01-30T17:37:23.519Z,101088.99
2019-01-30T17:39:54.820Z,101091.92
2019-01-30T17:42:26.058Z,101096.88
2019-01-30T17:44:57.230Z,101094.69
2019-01-30T17:47:28.486Z,101102.20
2019-01-30T17:49:59.772Z,101097.59
2019-01-30T17:52:30.989Z,101108.40
2019-01-30T17:55:04.507Z,101108.74
2019-01-30T17:57:36.105Z,101111.15
2019-01-30T18:00:18.453Z,101124.56
2019-01-30T18:02:49.819Z,101128.30
2019-01-30T18:05:21.039Z,101135.16
2019-01-30T18:07:54.587Z,101129.02
2019-01-30T18:10:25.851Z,101130.92
2019-01-30T18:12:57.123Z,101130.07
2019-01-30T18:15:28.316Z,101137.78
2019-01-30T18:17:59.533Z,101142.47
2019-01-30T18:20:31.583Z,101137.99
2019-01-30T18:23:02.863Z,101151.39
2019-01-30T18:25:37.604Z,101147.41
2019-01-30T18:28:08.987Z,101154.58
2019-01-30T18:30:40.204Z,101159.56
2019-01-30T18:33:11.424Z,101159.56
2019-01-30T18:35:42.814Z,101160.12
2019-01-30T18:38:15.013Z,101162.09
2019-01-30T18:40:46.236Z,101163.08
2019-01-30T18:43:17.885Z,101163.94
2019-01-30T18:45:49.162Z,101040.34
2019-01-30T18:48:20.533Z,101168.75
2019-01-30T18:50:51.740Z,101162.05
2019-01-30T18:53:23.377Z,101165.27
2019-01-30T18:55:54.627Z,101175.05
2019-01-30T18:58:25.906Z,101182.72
2019-01-30T19:00:57.310Z,101179.11
2019-01-30T19:03:28.572Z,101187.23
2019-01-30T19:06:01.325Z,101175.69
2019-01-30T19:08:33.216Z,101170.37
2019-01-30T19:11:04.595Z,101180.80
2019-01-30T19:13:35.781Z,101177.49
2019-01-30T19:16:07.214Z,101176.30
2019-01-30T19:18:38.392Z,101176.13
2019-01-30T19:21:12.563Z,101183.26
2019-01-30T19:23:44.007Z,101179.48
2019-01-30T19:26:15.231Z,101180.73
2019-01-30T19:28:47.940Z,101194.72
2019-01-30T19:31:19.187Z,101187.63
2019-01-30T19:33:50.409Z,101193.30
2019-01-30T19:36:21.621Z,101193.81
2019-01-30T19:38:52.839Z,101204.03
2019-01-30T19:41:24.051Z,101202.48
2019-01-30T19:43:55.805Z,101212.06
2019-01-30T19:46:27.010Z,101196.70
2019-01-30T19:48:58.251Z,101207.26
2019-01-30T19:51:29.558Z,101200.64
2019-01-30T19:54:00.848Z,101198.72
2019-01-30T19:56:32.077Z,101200.39
2019-01-30T19:59:03.305Z,101215.50
2019-01-30T20:01:36.314Z,101207.17
2019-01-30T20:04:07.683Z,101212.76
2019-01-30T20:06:38.910Z,101207.00
2019-01-30T20:09:16.697Z,101201.67
2019-01-30T20:11:48.401Z,101201.96
2019-01-30T20:14:19.726Z,101201.89
2019-01-30T20:16:50.982Z,101215.98
2019-01-30T20:19:22.182Z,101225.53
2019-01-30T20:21:53.825Z,101212.14
2019-01-30T20:24:24.923Z,101218.20
2019-01-30T20:26:56.124Z,101229.77
2019-01-30T20:29:27.438Z,101238.27
2019-01-30T20:31:58.852Z,101233.56
2019-01-30T20:40:15.957Z,101234.92
2019-01-30T20:41:13.484Z,101235.06
2019-01-30T20:43:44.868Z,101239.22
2019-01-30T20:46:16.133Z,101240.06
2019-01-30T20:48:51.632Z,101242.38
2019-01-30T20:51:20.464Z,101241.03
2019-01-30T20:53:51.735Z,101250.98
2019-01-30T20:56:24.261Z,101260.83
2019-01-30T20:58:55.509Z,101250.03
2019-01-30T21:01:33.611Z,101247.86
2019-01-30T21:04:04.936Z,101254.55
2019-01-30T21:06:36.334Z,101253.09
2019-01-30T21:09:16.594Z,101260.22
2019-01-30T21:11:48.887Z,100982.22
2019-01-30T21:14:22.147Z,101264.49
2019-01-30T21:16:55.071Z,101272.03
2019-01-30T21:19:29.083Z,101260.64
2019-01-30T21:22:01.937Z,101263.80
2019-01-30T21:24:34.389Z,101262.95
2019-01-30T21:27:06.062Z,101271.08
2019-01-30T21:29:38.828Z,101263.80
2019-01-30T21:32:10.047Z,101263.20
2019-01-30T21:34:41.504Z,101258.82
2019-01-30T21:37:16.055Z,101279.09
2019-01-30T21:39:47.170Z,101276.42
2019-01-30T21:42:20.357Z,101273.89
2019-01-30T21:44:51.513Z,101270.84
2019-01-30T21:47:26.599Z,101272.91
2019-01-30T21:49:57.811Z,101269.05
2019-01-30T21:52:29.543Z,101267.58
2019-01-30T21:55:00.713Z,101268.55
2019-01-30T21:57:31.965Z,101270.23
2019-01-30T22:00:03.489Z,101272.55
2019-01-30T22:02:35.618Z,101269.41
2019-01-30T22:05:07.551Z,101277.66
2019-01-30T22:07:38.828Z,101276.93
2019-01-30T22:10:12.131Z,101277.04
2019-01-30T22:12:44.043Z,101285.80
2019-01-30T22:15:15.636Z,101283.62
2019-01-30T22:17:46.738Z,101286.41
2019-01-30T22:20:19.939Z,101290.52
2019-01-30T22:22:52.724Z,101293.08
2019-01-30T22:25:24.278Z,101302.19
2019-01-30T22:27:55.602Z,101302.42
2019-01-30T22:30:31.836Z,101297.09
2019-01-30T22:33:03.136Z,101297.20
2019-01-30T22:35:34.559Z,101301.33
2019-01-30T22:38:12.718Z,101290.53
2019-01-30T22:40:39.114Z,101290.64
2019-01-30T22:43:10.442Z,101291.61
2019-01-30T22:45:41.616Z,101291.74
2019-01-30T22:48:13.018Z,101292.23
2019-01-30T22:50:44.080Z,101293.33
2019-01-30T22:53:18.043Z,101290.17
2019-01-30T22:55:49.229Z,101294.43
2019-01-30T22:58:20.336Z,101300.26
2019-01-30T23:01:20.645Z,101293.20
2019-01-30T23:04:22.844Z,101287.52
2019-01-30T23:07:14.023Z,101290.78
2019-01-30T23:10:15.434Z,101299.75
2019-01-30T23:13:26.587Z,101282.04
2019-01-30T23:16:43.238Z,101281.42
2019-01-30T23:19:30.632Z,101284.95
2019-01-30T23:22:10.637Z,101287.73
2019-01-30T23:25:35.754Z,101284.68
2019-01-30T23:28:17.726Z,101297.22
2019-01-30T23:31:38.926Z,101291.50
2019-01-30T23:34:39.285Z,101292.59
2019-01-30T23:37:39.613Z,101290.06
2019-01-30T23:40:37.044Z,101288.96
2019-01-30T23:43:29.156Z,101290.05
2019-01-30T23:46:24.800Z,101286.64
2019-01-30T23:49:31.887Z,101289.20
2019-01-30T23:52:35.302Z,101288.45
2019-01-30T23:55:44.599Z,101285.44
2019-01-30T23:58:42.384Z,101292.36
